Time;durP1;ratioP1;P1;durP2;ratioP2;P2;SDS_P1;SDS_P2;PMS_P1;PMS_P2;Temp;Humidity;BMP_temperature;BMP_pressure;BME280_temperature;BME280_humidity;BME280_pressure;Samples;Min_cycle;Max_cycle;Signal;HPM_P1;HPM_P2
2022/05/21 00:01:09;;;;;;;0.60;0.60;;;;;;;16.51;63.03;99055.72;4184466;28;20203;-54
2022/05/21 00:03:11;;;;;;;0.40;0.40;;;;;;;16.56;63.00;99072.28;4182586;28;20408;-54
2022/05/21 00:05:14;;;;;;;0.85;0.57;;;;;;;16.65;62.58;99067.06;4181098;28;20203;-54
2022/05/21 00:07:15;;;;;;;1.48;0.95;;;;;;;16.51;62.56;99064.03;4180548;28;20750;-54
2022/05/21 00:09:18;;;;;;;0.80;0.80;;;;;;;16.16;63.57;99076.91;4180235;28;20227;-57
2022/05/21 00:11:20;;;;;;;0.52;0.52;;;;;;;16.35;63.02;99078.88;4180021;28;20210;-57
2022/05/21 00:13:21;;;;;;;0.80;0.80;;;;;;;16.11;63.54;99086.00;4180648;28;20573;-56
2022/05/21 00:15:25;;;;;;;1.75;0.80;;;;;;;16.14;63.42;99085.44;4183047;28;20282;-57
2022/05/21 00:17:26;;;;;;;0.77;0.50;;;;;;;16.02;63.95;99093.13;4173365;28;20816;-57
2022/05/21 00:19:28;;;;;;;0.70;0.70;;;;;;;16.03;63.60;99088.47;4183064;28;20227;-55
2022/05/21 00:21:29;;;;;;;0.55;0.55;;;;;;;16.04;63.84;99096.44;4180066;28;20196;-54
2022/05/21 00:23:33;;;;;;;0.93;0.60;;;;;;;15.96;64.01;99096.97;4182947;28;20215;-54
2022/05/21 00:25:35;;;;;;;0.68;0.68;;;;;;;15.80;63.98;99100.78;4180130;28;20207;-57
2022/05/21 00:27:36;;;;;;;0.80;0.80;;;;;;;15.77;64.51;99101.31;4180439;28;20203;-54
2022/05/21 00:29:38;;;;;;;0.98;0.98;;;;;;;15.84;64.15;99103.84;4178433;28;20223;-57
2022/05/21 00:31:39;;;;;;;1.50;0.82;;;;;;;15.90;63.95;99100.81;4178691;28;20196;-56
2022/05/21 00:33:42;;;;;;;0.52;0.52;;;;;;;15.81;63.84;99113.47;4182710;28;20213;-55
2022/05/21 00:35:43;;;;;;;0.80;0.80;;;;;;;15.80;63.93;99111.81;4181155;28;20310;-56
2022/05/21 00:37:45;;;;;;;0.60;0.60;;;;;;;15.68;64.02;99113.13;4182090;28;20237;-55
2022/05/21 00:39:46;;;;;;;0.43;0.43;;;;;;;15.42;64.47;99114.09;4182447;28;20567;-55
2022/05/21 00:41:48;;;;;;;0.68;0.60;;;;;;;15.37;64.35;99111.31;4181255;28;20208;-55
2022/05/21 00:43:55;;;;;;;0.93;0.80;;;;;;;15.48;63.90;99113.84;4181692;28;20207;-55
2022/05/21 00:45:56;;;;;;;0.90;0.90;;;;;;;15.19;64.42;99109.78;4186787;28;20567;-54
2022/05/21 00:47:58;;;;;;;0.63;0.63;;;;;;;15.33;64.42;99121.19;4181686;28;20234;-54
2022/05/21 00:50:00;;;;;;;0.73;0.73;;;;;;;15.14;64.53;99111.66;4182249;28;20223;-55
2022/05/21 00:52:10;;;;;;;1.73;0.93;;;;;;;15.17;64.36;99111.94;4184002;28;20290;-56
2022/05/21 00:54:13;;;;;;;0.70;0.70;;;;;;;15.21;64.20;99118.63;4170569;28;20482;-55
2022/05/21 00:56:15;;;;;;;1.42;1.10;;;;;;;15.26;64.12;99120.56;4180211;28;20757;-55
2022/05/21 01:00:41;;;;;;;1.30;1.25;;;;;;;15.21;64.39;99118.63;4190185;28;20213;-57
2022/05/21 01:02:49;;;;;;;0.70;0.70;;;;;;;15.02;64.47;99111.84;4178287;28;20203;-58
2022/05/21 01:04:51;;;;;;;3.50;0.85;;;;;;;14.85;65.02;99119.44;4180319;28;20226;-53
2022/05/21 01:06:54;;;;;;;0.60;0.60;;;;;;;14.99;65.09;99126.19;4183999;28;20217;-54
2022/05/21 01:08:55;;;;;;;2.85;0.90;;;;;;;14.99;65.25;99125.34;4178316;28;20590;-55
2022/05/21 01:11:07;;;;;;;0.60;0.60;;;;;;;14.96;64.96;99132.19;4180359;28;20204;-53
2022/05/21 01:13:14;;;;;;;0.75;0.75;;;;;;;14.86;65.11;99126.63;4180211;28;20225;-54
2022/05/21 01:15:23;;;;;;;0.70;0.70;;;;;;;14.84;64.89;99134.28;4181375;28;20685;-57
2022/05/21 01:17:25;;;;;;;0.80;0.80;;;;;;;14.78;64.95;99129.84;4180698;28;20523;-56
2022/05/21 01:19:27;;;;;;;1.02;1.02;;;;;;;14.85;65.00;99129.63;4195721;28;20231;-55
2022/05/21 01:21:29;;;;;;;1.45;0.75;;;;;;;14.65;65.26;99130.28;4182139;28;20212;-54
2022/05/21 01:23:31;;;;;;;0.70;0.70;;;;;;;14.65;65.21;99129.44;4182178;28;20679;-54
2022/05/21 01:25:35;;;;;;;0.60;0.60;;;;;;;14.85;64.43;99133.22;4183110;28;20199;-55
2022/05/21 01:27:36;;;;;;;0.75;0.75;;;;;;;14.66;64.88;99137.44;4185277;28;20572;-56
2022/05/21 01:29:38;;;;;;;0.90;0.85;;;;;;;14.61;65.09;99145.66;4184106;28;20235;-54
2022/05/21 01:31:39;;;;;;;0.63;0.63;;;;;;;14.81;64.71;99145.84;4179964;28;20207;-57
2022/05/21 01:33:44;;;;;;;0.60;0.60;;;;;;;14.54;65.13;99144.19;4188375;28;20606;-54
2022/05/21 01:35:46;;;;;;;0.80;0.80;;;;;;;14.75;64.66;99157.91;4183859;28;20207;-56
2022/05/21 01:37:48;;;;;;;0.70;0.70;;;;;;;14.49;65.59;99146.91;4186140;28;20233;-58
2022/05/21 01:39:50;;;;;;;0.68;0.68;;;;;;;14.56;65.19;99153.06;4185089;28;20673;-55
2022/05/21 01:41:51;;;;;;;2.15;1.00;;;;;;;14.48;65.22;99151.59;4181980;28;20224;-57
2022/05/21 01:46:14;;;;;;;0.70;0.70;;;;;;;14.25;65.57;99146.38;4182275;28;20243;-56
2022/05/21 01:48:19;;;;;;;0.50;0.50;;;;;;;14.30;65.32;99154.69;4184325;28;20200;-56
2022/05/21 01:50:20;;;;;;;0.65;0.65;;;;;;;14.28;65.33;99148.63;4182098;28;20652;-56
2022/05/21 01:52:22;;;;;;;1.02;0.95;;;;;;;14.39;65.35;99147.66;4183888;28;20559;-57
2022/05/21 01:54:23;;;;;;;0.70;0.70;;;;;;;14.28;65.61;99156.88;4180567;28;20217;-56
2022/05/21 01:56:25;;;;;;;0.77;0.70;;;;;;;14.28;65.30;99162.38;4184094;28;20199;-56
2022/05/21 01:58:28;;;;;;;0.63;0.63;;;;;;;14.33;65.22;99154.19;4183575;28;20255;-56
2022/05/21 02:00:30;;;;;;;1.20;0.90;;;;;;;14.26;65.01;99153.56;4180740;28;20224;-56
2022/05/21 02:02:33;;;;;;;0.68;0.68;;;;;;;14.19;65.41;99158.44;4184230;28;20203;-57
2022/05/21 02:04:36;;;;;;;0.70;0.70;;;;;;;14.29;65.29;99157.72;4182708;28;20387;-55
2022/05/21 02:06:37;;;;;;;0.73;0.73;;;;;;;14.21;65.41;99161.75;4183080;28;20207;-55
2022/05/21 02:08:39;;;;;;;0.65;0.65;;;;;;;14.34;65.13;99163.25;4183669;28;20250;-54
2022/05/21 02:10:41;;;;;;;0.70;0.70;;;;;;;14.34;65.17;99158.59;4182259;28;20295;-56
2022/05/21 02:12:43;;;;;;;4.53;0.85;;;;;;;14.31;64.98;99159.09;4181178;28;20246;-55
2022/05/21 02:14:45;;;;;;;0.70;0.70;;;;;;;14.22;65.41;99163.41;4185159;28;20204;-58
2022/05/21 02:16:46;;;;;;;0.70;0.70;;;;;;;14.23;65.46;99167.81;4185411;28;20199;-54
2022/05/21 02:18:48;;;;;;;0.50;0.50;;;;;;;14.15;65.62;99162.75;4185258;28;20284;-57
2022/05/21 02:20:50;;;;;;;0.63;0.63;;;;;;;13.98;65.90;99172.97;4184018;28;20908;-57
2022/05/21 02:22:52;;;;;;;0.60;0.60;;;;;;;14.04;65.95;99171.94;4182494;28;20583;-54
2022/05/21 02:24:53;;;;;;;1.55;1.48;;;;;;;14.03;65.95;99177.72;4185934;28;20267;-57
2022/05/21 02:26:55;;;;;;;0.60;0.60;;;;;;;14.01;66.17;99172.47;4187546;28;20207;-57
2022/05/21 02:28:56;;;;;;;0.60;0.60;;;;;;;14.05;65.87;99172.78;4182850;28;20207;-57
2022/05/21 02:30:58;;;;;;;0.80;0.80;;;;;;;14.05;65.72;99175.56;4182157;28;20215;-56
2022/05/21 02:33:00;;;;;;;0.65;0.65;;;;;;;13.99;66.19;99177.41;4184844;28;20223;-55
2022/05/21 02:35:02;;;;;;;0.90;0.90;;;;;;;14.06;65.93;99180.81;4185622;28;20731;-58
2022/05/21 02:39:29;;;;;;;0.60;0.60;;;;;;;14.20;65.58;99171.09;4185408;28;20254;-56
2022/05/21 02:41:31;;;;;;;0.75;0.70;;;;;;;14.26;65.33;99169.22;4183594;28;20739;-56
2022/05/21 02:43:32;;;;;;;0.57;0.57;;;;;;;14.04;66.06;99187.66;4181841;28;20311;-56
2022/05/21 02:45:34;;;;;;;0.88;0.60;;;;;;;14.12;65.65;99174.28;4182685;28;20672;-56
2022/05/21 02:47:35;;;;;;;0.73;0.73;;;;;;;14.02;66.06;99176.88;4181698;28;20211;-56
2022/05/21 02:49:37;;;;;;;0.77;0.77;;;;;;;13.97;65.85;99182.31;4180683;28;20799;-54
2022/05/21 02:51:39;;;;;;;0.68;0.68;;;;;;;13.90;66.35;99175.34;4182629;28;20199;-55
2022/05/21 02:53:40;;;;;;;0.65;0.65;;;;;;;13.86;66.51;99179.69;4183307;28;20203;-54
2022/05/21 02:55:42;;;;;;;1.55;0.85;;;;;;;14.01;66.30;99183.50;4182724;28;20214;-55
2022/05/21 02:57:44;;;;;;;0.65;0.63;;;;;;;13.96;66.61;99185.34;4183658;28;20219;-55
2022/05/21 02:59:48;;;;;;;0.88;0.88;;;;;;;13.89;66.58;99185.53;4183941;28;20549;-56
2022/05/21 03:01:50;;;;;;;0.65;0.65;;;;;;;13.88;66.72;99185.75;4180287;28;20220;-56
2022/05/21 03:03:51;;;;;;;0.80;0.80;;;;;;;13.83;66.99;99186.53;4181385;28;20195;-56
2022/05/21 03:05:53;;;;;;;0.60;0.60;;;;;;;13.63;67.51;99185.44;4184795;28;20213;-55
2022/05/21 03:07:56;;;;;;;0.60;0.60;;;;;;;13.67;67.27;99187.44;4183911;28;20196;-54
2022/05/21 03:12:36;;;;;;;1.13;1.13;;;;;;;13.82;66.92;99193.13;4132901;28;20209;-57
2022/05/21 03:14:38;;;;;;;0.70;0.70;;;;;;;13.94;66.91;99191.09;4162901;28;20204;-56
2022/05/21 03:16:40;;;;;;;1.10;1.05;;;;;;;13.79;66.91;99190.91;4183845;28;20210;-60
2022/05/21 03:18:42;;;;;;;0.93;0.93;;;;;;;13.68;66.90;99178.09;4182201;28;20232;-55
2022/05/21 03:20:43;;;;;;;0.60;0.60;;;;;;;13.49;68.05;99184.94;4185169;28;20212;-57
2022/05/21 03:22:45;;;;;;;0.90;0.90;;;;;;;13.37;68.47;99175.97;4180739;28;20222;-55
2022/05/21 03:24:46;;;;;;;0.60;0.60;;;;;;;13.38;68.00;99177.63;4184293;28;20572;-55
2022/05/21 03:26:48;;;;;;;0.70;0.70;;;;;;;13.20;68.93;99179.81;4184672;28;20222;-56
2022/05/21 03:28:50;;;;;;;0.73;0.73;;;;;;;13.34;68.08;99187.47;4181430;28;20196;-57
2022/05/21 03:30:51;;;;;;;0.60;0.60;;;;;;;13.31;68.39;99193.47;4182539;28;20207;-58
2022/05/21 03:32:53;;;;;;;0.85;0.85;;;;;;;13.28;68.54;99188.47;4184970;28;20208;-56
2022/05/21 03:34:55;;;;;;;0.90;0.90;;;;;;;13.25;68.61;99186.22;4181530;28;20584;-55
2022/05/21 03:36:56;;;;;;;0.88;0.88;;;;;;;13.10;69.18;99183.22;4183838;28;20208;-58
2022/05/21 03:38:58;;;;;;;0.80;0.80;;;;;;;13.26;68.32;99182.41;4183387;28;20232;-57
2022/05/21 03:41:00;;;;;;;0.73;0.68;;;;;;;13.29;68.68;99184.63;4185159;28;20208;-57
2022/05/21 03:43:02;;;;;;;0.90;0.90;;;;;;;13.34;68.19;99195.72;4185850;28;20652;-58
2022/05/21 03:45:05;;;;;;;0.77;0.77;;;;;;;13.32;68.20;99195.16;4182578;28;20211;-55
2022/05/21 03:47:07;;;;;;;0.70;0.70;;;;;;;13.34;68.00;99187.47;4181322;28;20299;-57
2022/05/21 03:49:08;;;;;;;0.75;0.75;;;;;;;13.26;68.68;99195.31;4178966;28;20247;-56
2022/05/21 03:51:10;;;;;;;0.77;0.77;;;;;;;13.33;67.98;99202.31;4184180;28;20210;-56
2022/05/21 03:53:13;;;;;;;0.90;0.90;;;;;;;13.30;68.12;99202.78;4180576;28;20208;-57
2022/05/21 03:55:15;;;;;;;0.80;0.80;;;;;;;13.30;68.32;99196.47;4177987;28;20214;-58
2022/05/21 03:57:17;;;;;;;0.82;0.82;;;;;;;13.40;68.37;99205.72;4181114;28;20214;-59
2022/05/21 03:59:19;;;;;;;0.90;0.90;;;;;;;13.46;68.27;99207.47;4178511;28;20227;-59
2022/05/21 04:01:20;;;;;;;1.95;0.85;;;;;;;13.47;68.22;99202.78;4182278;28;20211;-57
2022/05/21 04:03:22;;;;;;;0.57;0.57;;;;;;;13.40;68.24;99208.47;4180023;28;20211;-59
2022/05/21 04:05:24;;;;;;;0.73;0.60;;;;;;;13.13;69.21;99199.22;4184391;28;20202;-58
2022/05/21 04:07:25;;;;;;;1.08;1.08;;;;;;;12.97;69.65;99201.97;4182938;28;20218;-57
2022/05/21 04:09:30;;;;;;;0.75;0.75;;;;;;;12.99;69.77;99199.81;4182719;28;20227;-56
2022/05/21 04:11:31;;;;;;;0.85;0.82;;;;;;;13.06;69.69;99201.31;4180249;28;20254;-58
2022/05/21 04:13:33;;;;;;;1.70;1.60;;;;;;;13.00;70.09;99216.03;4179077;28;20196;-58
2022/05/21 04:15:35;;;;;;;1.00;1.00;;;;;;;12.88;70.33;99220.75;4179184;28;20693;-56
2022/05/21 04:17:37;;;;;;;1.00;1.00;;;;;;;12.84;70.62;99214.06;4178633;28;20209;-56
2022/05/21 04:19:42;;;;;;;1.20;1.10;;;;;;;12.85;70.87;99215.72;4185121;28;20227;-57
2022/05/21 04:21:44;;;;;;;1.13;0.90;;;;;;;12.87;70.58;99213.59;4179980;28;20291;-56
2022/05/21 04:23:45;;;;;;;0.95;0.93;;;;;;;13.03;70.38;99214.72;4181110;28;20606;-56
2022/05/21 04:25:47;;;;;;;0.95;0.95;;;;;;;13.10;69.95;99218.94;4177399;28;20712;-56
2022/05/21 04:27:50;;;;;;;1.23;1.08;;;;;;;12.89;70.62;99227.91;4177806;28;20203;-58
2022/05/21 04:29:52;;;;;;;0.90;0.90;;;;;;;12.85;70.91;99215.72;4181960;28;20224;-55
2022/05/21 04:31:53;;;;;;;1.50;1.40;;;;;;;13.07;70.22;99221.38;4178602;28;20735;-57
2022/05/21 04:33:55;;;;;;;1.00;1.00;;;;;;;12.71;71.53;99225.34;4184473;28;20207;-57
2022/05/21 04:38:17;;;;;;;2.92;0.90;;;;;;;12.82;71.06;99232.72;4183083;28;20234;-59
2022/05/21 04:40:21;;;;;;;1.05;0.95;;;;;;;12.91;71.18;99236.72;4178475;28;20238;-56
2022/05/21 04:42:23;;;;;;;1.08;1.08;;;;;;;12.99;70.60;99232.78;4181040;28;20214;-56
2022/05/21 04:44:30;;;;;;;0.77;0.77;;;;;;;12.91;71.30;99236.72;4179730;28;20214;-56
2022/05/21 04:46:32;;;;;;;1.17;1.05;;;;;;;13.05;70.64;99227.09;4178475;28;20647;-57
2022/05/21 04:48:33;;;;;;;0.90;0.90;;;;;;;13.04;70.89;99236.44;4179691;28;20200;-58
2022/05/21 04:50:43;;;;;;;1.10;1.05;;;;;;;12.95;71.11;99237.09;4180279;28;20203;-58
2022/05/21 04:52:45;;;;;;;0.68;0.68;;;;;;;12.92;70.94;99238.41;4181757;28;20223;-56
2022/05/21 04:54:47;;;;;;;0.65;0.65;;;;;;;12.92;71.01;99241.16;4183613;28;20219;-56
2022/05/21 04:56:48;;;;;;;1.05;0.95;;;;;;;12.91;71.17;99238.66;4181790;28;20204;-57
2022/05/21 04:58:50;;;;;;;0.60;0.60;;;;;;;12.89;71.10;99233.38;4184962;28;20576;-58
2022/05/21 05:00:51;;;;;;;0.82;0.82;;;;;;;12.92;71.50;99238.41;4177902;28;20199;-54
2022/05/21 05:02:53;;;;;;;1.48;1.38;;;;;;;12.95;71.37;99242.56;4180144;28;20207;-57
2022/05/21 05:04:54;;;;;;;0.93;0.90;;;;;;;13.00;71.11;99235.28;4182861;28;20204;-58
2022/05/21 05:06:56;;;;;;;3.22;2.20;;;;;;;13.06;70.86;99242.53;4184241;28;20212;-57
2022/05/21 05:08:58;;;;;;;1.00;1.00;;;;;;;13.08;70.74;99245.84;4181693;28;20246;-56
2022/05/21 05:10:59;;;;;;;1.70;0.90;;;;;;;13.09;70.47;99249.44;4185112;28;20210;-54
2022/05/21 05:13:01;;;;;;;1.00;0.98;;;;;;;13.12;70.80;99254.44;4182813;28;20226;-56
2022/05/21 05:15:03;;;;;;;2.05;0.90;;;;;;;13.15;70.72;99248.44;4185867;28;20207;-55
2022/05/21 05:17:05;;;;;;;1.65;1.55;;;;;;;13.18;70.46;99247.94;4186908;28;20338;-55
2022/05/21 05:19:07;;;;;;;0.73;0.70;;;;;;;13.21;70.29;99253.78;4185922;28;20235;-54
2022/05/21 05:21:08;;;;;;;0.60;0.60;;;;;;;13.45;69.27;99244.31;4188251;28;20199;-55
2022/05/21 05:23:10;;;;;;;0.80;0.80;;;;;;;13.39;70.10;99248.03;4187179;28;20214;-56
2022/05/21 05:25:11;;;;;;;1.00;0.90;;;;;;;13.37;69.58;99252.13;4184954;28;20204;-57
2022/05/21 05:27:13;;;;;;;1.13;1.10;;;;;;;13.45;69.82;99249.78;4182069;28;20203;-58
2022/05/21 05:29:14;;;;;;;0.90;0.90;;;;;;;13.34;69.95;99245.22;4184861;28;20230;-56
2022/05/21 05:31:16;;;;;;;1.13;1.02;;;;;;;13.39;70.07;99249.94;4184101;28;20207;-57
2022/05/21 05:33:17;;;;;;;1.17;1.08;;;;;;;13.46;70.06;99250.63;4184721;28;21246;-57
2022/05/21 05:35:19;;;;;;;1.00;0.95;;;;;;;13.67;68.74;99247.94;4186116;28;20286;-57
2022/05/21 05:37:21;;;;;;;1.20;1.02;;;;;;;13.65;68.99;99255.63;4182654;28;20382;-56
2022/05/21 05:39:22;;;;;;;4.82;1.30;;;;;;;13.60;69.14;99252.78;4186594;28;20231;-55
2022/05/21 05:41:24;;;;;;;1.05;1.00;;;;;;;13.62;68.81;99250.59;4186065;28;20634;-56
2022/05/21 05:43:27;;;;;;;5.00;1.20;;;;;;;13.67;68.65;99247.09;4184458;28;20314;-56
2022/05/21 05:45:29;;;;;;;1.75;1.38;;;;;;;13.90;67.85;99253.22;4187268;28;20211;-55
2022/05/21 05:47:31;;;;;;;1.10;1.02;;;;;;;13.70;68.32;99250.16;4186896;28;20203;-55
2022/05/21 05:49:33;;;;;;;1.52;0.95;;;;;;;13.60;68.70;99240.94;4191617;28;20219;-55
2022/05/21 05:51:35;;;;;;;2.88;0.95;;;;;;;13.71;68.00;99249.09;4185316;28;20214;-58
2022/05/21 05:53:36;;;;;;;0.88;0.88;;;;;;;13.68;67.95;99252.34;4186059;28;20298;-56
2022/05/21 05:55:41;;;;;;;0.80;0.80;;;;;;;13.93;67.64;99249.97;4184692;28;20721;-57
2022/05/21 05:57:43;;;;;;;1.23;0.93;;;;;;;13.68;67.69;99254.25;4180528;28;20204;-57
2022/05/21 05:59:50;;;;;;;2.05;1.45;;;;;;;13.74;67.11;99259.59;4183343;28;20694;-57
2022/05/21 06:02:57;;;;;;;1.15;1.15;;;;;;;13.98;67.24;99252.78;4184767;28;20202;-56
2022/05/21 06:04:13;;;;;;;1.08;1.02;;;;;;;14.21;66.50;99258.09;4185014;28;20199;-57
2022/05/21 06:06:15;;;;;;;7.50;0.93;;;;;;;14.40;66.02;99259.44;4183453;28;20290;-58
2022/05/21 06:08:17;;;;;;;1.45;1.05;;;;;;;14.43;66.17;99258.94;4185345;28;20286;-57
2022/05/21 06:10:24;;;;;;;1.38;1.27;;;;;;;14.55;65.40;99262.38;4180846;28;20862;-56
2022/05/21 06:12:25;;;;;;;1.05;1.00;;;;;;;14.42;65.74;99273.78;4184751;28;20218;-57
2022/05/21 06:14:27;;;;;;;0.98;0.98;;;;;;;14.36;65.19;99269.31;4183767;28;20544;-56
2022/05/21 06:16:28;;;;;;;1.00;1.00;;;;;;;14.39;66.38;99268.81;4184698;28;20297;-56
2022/05/21 06:18:30;;;;;;;1.42;1.33;;;;;;;14.30;66.15;99269.50;4186709;28;20701;-55
2022/05/21 06:20:32;;;;;;;2.08;1.88;;;;;;;14.42;65.50;99262.78;4183944;28;20726;-55
2022/05/21 06:22:35;;;;;;;1.63;1.52;;;;;;;14.39;65.49;99268.81;4184227;28;20287;-56
2022/05/21 06:24:37;;;;;;;2.47;1.58;;;;;;;14.55;65.72;99270.66;4186007;28;20944;-57
2022/05/21 06:26:39;;;;;;;1.45;1.35;;;;;;;14.70;65.44;99270.81;4185473;28;20213;-59
2022/05/21 06:28:40;;;;;;;1.73;1.63;;;;;;;14.56;65.58;99266.00;4186737;28;20231;-58
2022/05/21 06:30:43;;;;;;;1.77;1.67;;;;;;;14.70;65.98;99276.34;4182580;28;20208;-57
2022/05/21 06:32:45;;;;;;;1.58;1.48;;;;;;;14.92;65.17;99268.88;4183162;28;20204;-56
2022/05/21 06:34:46;;;;;;;1.85;1.75;;;;;;;15.25;64.55;99274.19;4182609;28;20297;-58
2022/05/21 06:36:48;;;;;;;2.00;1.90;;;;;;;15.11;63.80;99261.88;4186777;28;20204;-58
2022/05/21 06:38:50;;;;;;;2.38;2.17;;;;;;;15.25;63.90;99268.66;4182731;28;20604;-57
2022/05/21 06:40:51;;;;;;;1.67;1.58;;;;;;;15.16;64.09;99259.19;4184680;28;20298;-57
2022/05/21 06:42:53;;;;;;;1.77;1.67;;;;;;;14.94;64.35;99263.94;4184708;28;20200;-56
2022/05/21 06:44:54;;;;;;;1.50;1.40;;;;;;;15.13;64.04;99259.72;4184630;28;20203;-58
2022/05/21 06:46:57;;;;;;;1.60;1.50;;;;;;;15.09;64.08;99269.59;4182040;28;20293;-55
2022/05/21 06:48:58;;;;;;;1.55;1.42;;;;;;;15.13;63.76;99270.75;4183880;28;20203;-57
2022/05/21 06:51:05;;;;;;;3.22;1.58;;;;;;;15.06;64.35;99270.13;4184465;28;20222;-55
2022/05/21 06:53:07;;;;;;;2.22;1.50;;;;;;;15.49;65.18;99267.25;4182003;28;22558;-57
2022/05/21 06:55:09;;;;;;;1.50;1.40;;;;;;;15.86;64.33;99258.97;4184524;28;20214;-58
2022/05/21 06:57:13;;;;;;;2.20;1.60;;;;;;;16.14;63.13;99256.66;4184585;28;20204;-55
2022/05/21 06:59:15;;;;;;;1.05;0.95;;;;;;;16.32;61.90;99261.75;4185684;28;20251;-58
2022/05/21 07:01:18;;;;;;;2.05;1.23;;;;;;;16.10;61.73;99261.06;4184667;28;20331;-59
2022/05/21 07:03:20;;;;;;;1.30;0.90;;;;;;;16.31;61.59;99264.75;4183067;28;20207;-56
2022/05/21 07:07:44;;;;;;;1.20;1.10;;;;;;;16.20;61.64;99266.66;4199962;28;20736;-58
2022/05/21 07:09:45;;;;;;;1.40;1.30;;;;;;;16.13;61.41;99274.34;4185075;28;20685;-57
2022/05/21 07:11:49;;;;;;;1.23;1.08;;;;;;;15.68;62.15;99273.19;4186782;28;20286;-56
2022/05/21 07:13:50;;;;;;;0.77;0.77;;;;;;;15.72;61.92;99269.66;4187072;28;20200;-57
2022/05/21 07:15:54;;;;;;;1.00;0.90;;;;;;;15.97;61.85;99275.31;4187641;28;20208;-54
2022/05/21 07:18:00;;;;;;;1.20;1.10;;;;;;;16.06;61.43;99282.03;4188592;28;20550;-56
2022/05/21 07:20:07;;;;;;;1.08;0.93;;;;;;;16.09;61.90;99275.97;4183505;28;20318;-56
2022/05/21 07:22:10;;;;;;;1.58;0.70;;;;;;;16.26;61.46;99271.09;4185686;28;20213;-56
2022/05/21 07:24:11;;;;;;;0.93;0.93;;;;;;;16.46;60.73;99276.75;4182009;28;20298;-57
2022/05/21 07:26:13;;;;;;;1.35;1.27;;;;;;;16.61;61.13;99279.59;4181895;28;20206;-56
2022/05/21 07:28:15;;;;;;;1.33;0.80;;;;;;;16.77;60.43;99277.72;4181853;28;20584;-55
2022/05/21 07:30:17;;;;;;;1.05;0.95;;;;;;;16.86;60.80;99273.31;4181425;28;20235;-54
2022/05/21 07:32:23;;;;;;;1.17;0.80;;;;;;;17.07;59.92;99273.09;4184638;28;20204;-58
2022/05/21 07:34:25;;;;;;;1.13;1.02;;;;;;;17.29;59.30;99276.44;4183254;28;20363;-57
2022/05/21 07:36:26;;;;;;;1.95;1.15;;;;;;;17.45;59.13;99276.22;4181958;28;20210;-55
2022/05/21 07:38:28;;;;;;;1.48;1.25;;;;;;;17.20;59.03;99278.09;4183588;28;20672;-56
2022/05/21 07:40:29;;;;;;;0.65;0.65;;;;;;;17.61;60.46;99280.66;4187318;28;20231;-57
2022/05/21 07:42:37;;;;;;;0.65;0.65;;;;;;;17.64;59.43;99282.06;4182365;28;20203;-56
2022/05/21 07:44:39;;;;;;;0.95;0.88;;;;;;;17.70;58.23;99275.38;4184713;28;20218;-56
2022/05/21 07:46:41;;;;;;;1.17;1.08;;;;;;;17.67;58.72;99287.03;4186617;28;20286;-56
2022/05/21 07:48:42;;;;;;;0.80;0.77;;;;;;;17.63;57.82;99291.44;4184865;28;20203;-56
2022/05/21 07:50:47;;;;;;;1.63;0.80;;;;;;;17.88;58.39;99291.44;4184118;28;20202;-59
2022/05/21 07:52:48;;;;;;;0.73;0.60;;;;;;;17.85;57.80;99287.28;4180795;28;20286;-55
2022/05/21 07:54:50;;;;;;;0.57;0.57;;;;;;;17.95;57.60;99280.91;4184477;28;20507;-54
2022/05/21 07:56:52;;;;;;;0.50;0.50;;;;;;;17.69;56.60;99280.09;4181545;28;20214;-57
2022/05/21 07:58:53;;;;;;;1.40;1.17;;;;;;;17.14;58.21;99296.63;4181932;28;20199;-55
2022/05/21 08:00:55;;;;;;;3.05;0.77;;;;;;;17.69;57.83;99282.03;4181695;28;20215;-59
2022/05/21 08:02:57;;;;;;;0.60;0.60;;;;;;;17.87;57.14;99278.72;4180812;28;20203;-58
2022/05/21 08:04:59;;;;;;;0.77;0.68;;;;;;;18.33;57.83;99285.84;4185178;28;20226;-55
2022/05/21 08:07:01;;;;;;;0.50;0.50;;;;;;;18.31;56.50;99290.88;4182228;28;20686;-58
2022/05/21 08:09:03;;;;;;;0.47;0.47;;;;;;;18.50;55.92;99294.66;4184928;28;20227;-59
2022/05/21 08:11:04;;;;;;;1.20;0.80;;;;;;;18.57;55.89;99289.69;4181530;28;20287;-54
2022/05/21 08:13:06;;;;;;;0.60;0.60;;;;;;;18.59;56.42;99290.22;4182833;28;21770;-59
2022/05/21 08:15:09;;;;;;;0.50;0.50;;;;;;;18.56;55.39;99280.53;4185480;28;20207;-58
2022/05/21 08:17:11;;;;;;;0.85;0.45;;;;;;;18.24;55.18;99268.13;4184648;28;20287;-53
2022/05/21 08:19:13;;;;;;;0.57;0.50;;;;;;;18.15;55.16;99270.63;4181790;28;20227;-57
2022/05/21 08:21:14;;;;;;;0.50;0.50;;;;;;;18.17;55.32;99273.09;4178197;28;20203;-56
2022/05/21 08:27:57;;;;;;;0.50;0.50;;;;;;;17.91;56.17;99274.28;4179966;28;20200;-56
2022/05/21 08:29:59;;;;;;;0.57;0.57;;;;;;;18.14;55.30;99268.13;4181913;28;20762;-54
2022/05/21 08:32:03;;;;;;;0.50;0.50;;;;;;;18.80;55.41;99269.59;4181111;28;20601;-58
2022/05/21 08:34:04;;;;;;;1.30;0.50;;;;;;;18.55;54.43;99264.16;4180021;28;20199;-54
2022/05/21 08:36:06;;;;;;;1.23;0.55;;;;;;;18.74;55.77;99256.88;4183630;28;20202;-54
2022/05/21 08:38:09;;;;;;;1.58;0.50;;;;;;;18.51;54.85;99272.22;4183471;28;20262;-54
2022/05/21 08:40:14;;;;;;;0.95;0.50;;;;;;;18.63;54.16;99260.78;4184122;28;20222;-54
2022/05/21 08:42:28;;;;;;;0.98;0.35;;;;;;;18.81;53.82;99262.94;4169618;28;20203;-54
2022/05/21 08:44:44;;;;;;;0.28;0.28;;;;;;;19.04;53.68;99262.28;4190169;28;20677;-56
2022/05/21 08:47:00;;;;;;;0.30;0.30;;;;;;;18.89;53.95;99268.72;4181618;28;20245;-58
2022/05/21 08:49:23;;;;;;;1.42;0.55;;;;;;;18.23;53.55;99266.44;4185557;28;20258;-54
2022/05/21 08:51:28;;;;;;;0.47;0.40;;;;;;;18.09;53.89;99266.22;4184373;28;20290;-55
2022/05/21 08:53:32;;;;;;;0.40;0.40;;;;;;;18.26;53.33;99266.72;4183850;28;20230;-55
2022/05/21 08:55:48;;;;;;;2.15;0.60;;;;;;;18.74;54.53;99256.88;4185679;28;20207;-55
2022/05/21 08:58:00;;;;;;;0.50;0.50;;;;;;;19.08;52.97;99257.78;4201442;28;20199;-59
2022/05/21 09:00:19;;;;;;;0.30;0.30;;;;;;;19.20;53.06;99259.16;4183625;28;20251;-56
2022/05/21 09:02:28;;;;;;;0.60;0.40;;;;;;;19.06;52.13;99265.56;4180318;28;20200;-54
2022/05/21 09:04:30;;;;;;;0.60;0.40;;;;;;;18.87;52.15;99265.41;4186934;28;20223;-56
2022/05/21 09:06:39;;;;;;;1.42;0.60;;;;;;;18.45;53.31;99264.22;4188221;28;20866;-55
2022/05/21 09:08:46;;;;;;;0.63;0.30;;;;;;;18.88;53.06;99252.34;4184798;28;20239;-58
2022/05/21 09:11:11;;;;;;;1.65;0.98;;;;;;;19.14;51.97;99251.09;4187944;28;20221;-54
2022/05/21 09:13:44;;;;;;;0.50;0.50;;;;;;;19.45;51.34;99252.56;4185451;28;20208;-56
2022/05/21 09:18:07;;;;;;;1.67;0.40;;;;;;;19.31;50.48;99243.25;4187663;28;20244;-56
2022/05/21 09:20:18;;;;;;;0.40;0.40;;;;;;;18.95;50.27;99237.06;4187110;28;20609;-56
2022/05/21 09:22:21;;;;;;;5.97;0.50;;;;;;;18.65;51.48;99237.22;4187718;28;20290;-57
2022/05/21 09:24:44;;;;;;;0.20;0.20;;;;;;;19.25;51.50;99236.88;4183514;28;20207;-55
2022/05/21 09:26:49;;;;;;;0.25;0.20;;;;;;;18.90;50.45;99245.41;4185491;28;20200;-54
2022/05/21 09:28:51;;;;;;;0.75;0.52;;;;;;;18.74;49.94;99238.31;4184872;28;20825;-53
2022/05/21 09:30:56;;;;;;;0.40;0.40;;;;;;;19.19;50.39;99242.75;4188755;28;22655;-54
2022/05/21 09:33:00;;;;;;;0.50;0.40;;;;;;;19.55;49.92;99230.25;4181817;28;20778;-54
2022/05/21 09:35:05;;;;;;;0.32;0.30;;;;;;;19.49;48.68;99225.88;4185123;28;20210;-54
2022/05/21 09:37:16;;;;;;;0.90;0.55;;;;;;;19.53;48.81;99227.81;4187046;28;20306;-53
2022/05/21 09:39:30;;;;;;;0.55;0.55;;;;;;;19.87;49.28;99223.03;4184691;28;20226;-54
2022/05/21 09:41:32;;;;;;;0.30;0.30;;;;;;;19.81;48.00;99217.81;4184920;28;20678;-57
2022/05/21 09:46:31;;;;;;;0.43;0.28;;;;;;;20.39;49.25;99217.47;4183134;28;20195;-55
2022/05/21 09:48:33;;;;;;;0.43;0.38;;;;;;;20.46;48.67;99225.47;4186889;28;20221;-54
2022/05/21 09:50:43;;;;;;;1.02;0.68;;;;;;;19.99;49.15;99220.66;4184663;28;20225;-56
2022/05/21 09:52:47;;;;;;;0.22;0.22;;;;;;;20.56;50.53;99225.31;4184507;28;20234;-57
2022/05/21 09:54:49;;;;;;;0.30;0.30;;;;;;;20.90;48.06;99221.28;4185881;28;20972;-54
2022/05/21 09:56:53;;;;;;;0.47;0.30;;;;;;;20.87;47.45;99209.91;4182267;28;20595;-55
2022/05/21 09:59:12;;;;;;;1.83;0.77;;;;;;;20.86;47.25;99208.25;4180875;28;20209;-58
2022/05/21 10:01:32;;;;;;;1.10;0.40;;;;;;;21.09;48.55;99221.28;4194055;28;20222;-56
2022/05/21 10:03:41;;;;;;;0.20;0.20;;;;;;;21.20;48.38;99220.00;4180889;28;20201;-56
2022/05/21 10:05:52;;;;;;;1.27;0.45;;;;;;;21.21;47.04;99216.94;4180596;28;20306;-56